Terminal Aerodrome Forecast
Issued by NWS

Home | Current Version | Previous Version | Text Only | Print | Product List | Glossary On
Versions: 1 2 3 4 5 6 7 8 9 10 11 12 13 14 15 16 17 18 19 20 21 22
000
FTUS41 KBTV 221130
TAFRUT
TAF
KRUT 221130Z 2212/2312 32006KT P6SM OVC020
      TEMPO 2214/2218 -RA OVC015
     FM221800 34010KT 5SM -RA BR OVC015
     FM230000 36010KT 3SM RA BR OVC007=

USA.gov is the U.S. government's official web portal to all federal, state and local government web resources and services.